Time;durP1;ratioP1;P1;durP2;ratioP2;P2;SDS_P1;SDS_P2;PMS_P1;PMS_P2;Temp;Humidity;BMP_temperature;BMP_pressure;BME280_temperature;BME280_humidity;BME280_pressure;Samples;Min_cycle;Max_cycle;Signal;HPM_P1;HPM_P2
2023/06/06 00:02:21;;;;;;;1999.90;999.90;;;;;;;21.71;42.23;102275.94;5071281;28;20038;-81
2023/06/06 00:04:49;;;;;;;1999.90;999.90;;;;;;;21.37;42.43;102282.34;5072844;28;20392;-80
2023/06/06 00:07:16;;;;;;;1999.90;999.90;;;;;;;20.56;45.12;102278.59;5072390;28;20027;-80
2023/06/06 00:09:42;;;;;;;1999.90;999.90;;;;;;;20.32;44.60;102280.19;5072826;28;20456;-80
2023/06/06 00:12:12;;;;;;;1999.90;999.90;;;;;;;21.29;43.27;102281.75;5058571;28;20036;-80
2023/06/06 00:14:39;;;;;;;1999.90;999.90;;;;;;;20.97;43.68;102278.31;5066907;28;20115;-80
2023/06/06 00:17:06;;;;;;;1999.90;999.90;;;;;;;20.92;44.00;102280.25;5090892;28;20031;-80
2023/06/06 00:19:32;;;;;;;1999.90;999.90;;;;;;;21.00;43.60;102276.41;5064504;28;20047;-80
2023/06/06 00:21:58;;;;;;;1999.90;999.90;;;;;;;21.19;43.44;102283.81;5084653;28;20055;-80
2023/06/06 00:24:24;;;;;;;1999.90;999.90;;;;;;;21.52;42.67;102281.88;5076175;28;20169;-80
2023/06/06 00:26:50;;;;;;;1999.90;999.90;;;;;;;21.50;42.73;102278.38;5074778;28;20027;-80
2023/06/06 00:29:15;;;;;;;1999.90;999.90;;;;;;;20.86;44.23;102276.00;5069491;28;20058;-80
2023/06/06 00:31:41;;;;;;;1999.90;999.90;;;;;;;20.40;44.72;102277.31;5080593;28;20036;-80
2023/06/06 00:34:06;;;;;;;1999.90;999.90;;;;;;;20.68;44.79;102280.06;5075945;28;20085;-80
2023/06/06 00:36:32;;;;;;;1999.90;999.90;;;;;;;21.05;44.25;102280.72;5076782;28;20441;-80
2023/06/06 00:38:57;;;;;;;1999.90;999.90;;;;;;;20.76;43.95;102283.38;5074840;28;20403;-80
2023/06/06 00:41:22;;;;;;;1999.90;999.90;;;;;;;21.01;43.54;102279.97;5072746;28;20035;-80
2023/06/06 00:43:48;;;;;;;1999.90;999.90;;;;;;;21.24;43.31;102275.69;5075581;28;20454;-79
2023/06/06 00:46:15;;;;;;;1999.90;999.90;;;;;;;20.46;44.88;102277.16;5066313;28;20036;-80
2023/06/06 00:48:41;;;;;;;1999.90;999.90;;;;;;;20.00;47.00;102287.22;5054307;28;20032;-79
2023/06/06 00:51:08;;;;;;;1999.90;999.90;;;;;;;20.09;46.01;102287.00;5060634;28;20093;-80
2023/06/06 00:53:35;;;;;;;1999.90;999.90;;;;;;;20.75;44.50;102278.09;5069678;28;20029;-79
2023/06/06 00:56:01;;;;;;;1999.90;999.90;;;;;;;21.50;43.03;102286.38;5063854;28;20032;-80
2023/06/06 00:58:27;;;;;;;1999.90;999.90;;;;;;;21.51;43.15;102281.91;5075793;28;20031;-79
2023/06/06 01:00:52;;;;;;;1999.90;999.90;;;;;;;21.51;42.79;102296.09;5078484;28;20036;-79
2023/06/06 01:03:19;;;;;;;1999.90;999.90;;;;;;;21.40;43.30;102286.72;5072972;28;20040;-78
2023/06/06 01:05:45;;;;;;;1999.90;999.90;;;;;;;21.09;43.73;102285.91;5055005;28;20380;-81
2023/06/06 01:08:12;;;;;;;1999.90;999.90;;;;;;;20.63;44.80;102284.59;5055651;28;20035;-80
2023/06/06 01:10:39;;;;;;;1999.90;999.90;;;;;;;21.54;42.53;102283.63;5060053;28;20110;-83
2023/06/06 01:13:23;;;;;;;1999.90;999.90;;;;;;;21.18;43.37;102288.28;5055274;28;20038;-79
2023/06/06 01:15:56;;;;;;;1999.90;999.90;;;;;;;21.78;42.26;102280.13;5066707;28;20036;-79
2023/06/06 01:18:22;;;;;;;1999.90;999.90;;;;;;;21.05;43.91;102286.03;5074881;28;20028;-79
2023/06/06 01:20:48;;;;;;;1999.90;999.90;;;;;;;20.84;44.00;102278.69;5055922;28;20035;-78
2023/06/06 01:23:14;;;;;;;1999.90;999.90;;;;;;;19.62;47.53;102283.78;5053738;28;20032;-79
2023/06/06 01:25:41;;;;;;;1999.90;999.90;;;;;;;20.86;44.25;102280.44;5054998;28;20016;-79
2023/06/06 01:28:12;;;;;;;1999.90;999.90;;;;;;;20.05;45.83;102272.06;5055055;28;20020;-79
2023/06/06 01:30:40;;;;;;;1999.90;999.90;;;;;;;20.31;45.07;102278.44;5055361;28;20495;-79
2023/06/06 01:33:26;;;;;;;1999.90;999.90;;;;;;;20.36;45.47;102275.66;5075368;28;20060;-79
2023/06/06 01:36:11;;;;;;;1999.90;999.90;;;;;;;20.92;44.00;102274.94;5073097;28;20070;-80
2023/06/06 01:39:03;;;;;;;1999.90;999.90;;;;;;;20.15;45.64;102268.25;5073565;28;20070;-79
2023/06/06 01:41:31;;;;;;;1999.90;999.90;;;;;;;19.85;46.30;102282.34;5074831;28;20032;-79
2023/06/06 01:43:58;;;;;;;1999.90;999.90;;;;;;;20.48;44.80;102276.19;5092888;28;20077;-79
2023/06/06 01:46:26;;;;;;;1999.90;999.90;;;;;;;19.92;46.46;102271.53;5072849;28;20016;-79
2023/06/06 01:48:53;;;;;;;1999.90;999.90;;;;;;;20.93;43.74;102271.34;5070783;28;20051;-79
2023/06/06 01:51:18;;;;;;;1999.90;999.90;;;;;;;20.39;44.80;102271.13;5053900;28;20032;-79
2023/06/06 01:53:44;;;;;;;1999.90;999.90;;;;;;;20.25;45.93;102273.28;5054378;28;20032;-78
2023/06/06 01:56:13;;;;;;;1999.90;999.90;;;;;;;19.98;45.53;102273.16;5054712;28;20035;-78
2023/06/06 01:58:42;;;;;;;1999.90;999.90;;;;;;;20.67;44.38;102270.31;5053921;28;20028;-78
2023/06/06 02:01:08;;;;;;;1999.90;999.90;;;;;;;21.43;42.97;102274.19;5054849;28;20035;-79
2023/06/06 02:03:36;;;;;;;1999.90;999.90;;;;;;;20.60;43.46;102274.94;5054948;28;20035;-79
2023/06/06 02:06:03;;;;;;;1999.90;999.90;;;;;;;20.99;43.98;102265.84;5075292;28;20016;-79
2023/06/06 02:08:28;;;;;;;1999.90;999.90;;;;;;;19.94;45.81;102268.84;5066877;28;20115;-79
2023/06/06 02:10:55;;;;;;;1999.90;999.90;;;;;;;19.91;46.15;102266.28;5053925;28;20131;-79
2023/06/06 02:13:20;;;;;;;1999.90;999.90;;;;;;;20.54;44.46;102263.63;5053959;28;20020;-79
2023/06/06 02:15:45;;;;;;;1999.90;999.90;;;;;;;21.38;42.85;102267.25;5053311;28;20070;-78
2023/06/06 02:18:11;;;;;;;1999.90;999.90;;;;;;;21.17;43.14;102265.28;5054161;28;20027;-79
2023/06/06 02:20:37;;;;;;;1999.90;999.90;;;;;;;20.66;43.79;102271.22;5075818;28;20384;-79
2023/06/06 02:23:02;;;;;;;1999.90;999.90;;;;;;;19.67;47.50;102268.59;5071054;28;20020;-79
2023/06/06 02:25:28;;;;;;;1999.90;999.90;;;;;;;20.84;44.67;102273.38;5054435;28;20028;-78
2023/06/06 02:27:53;;;;;;;1999.90;999.90;;;;;;;20.78;44.47;102267.38;5053229;28;20063;-79
2023/06/06 02:30:19;;;;;;;1999.90;999.90;;;;;;;20.86;44.12;102264.50;5053515;28;20024;-79
2023/06/06 02:32:45;;;;;;;1999.90;999.90;;;;;;;20.10;45.83;102256.91;5053519;28;20047;-79
2023/06/06 02:35:11;;;;;;;1999.90;999.90;;;;;;;20.57;45.29;102258.25;5053795;28;20460;-79
2023/06/06 02:37:36;;;;;;;1999.90;999.90;;;;;;;19.74;47.06;102262.25;5068085;28;20035;-79
2023/06/06 02:40:10;;;;;;;1999.90;999.90;;;;;;;20.10;45.67;102261.31;5073757;28;20028;-79
2023/06/06 02:42:39;;;;;;;1999.90;999.90;;;;;;;20.51;44.71;102265.47;5090643;28;20020;-78
2023/06/06 02:45:08;;;;;;;1999.90;999.90;;;;;;;20.15;45.71;102255.00;5072296;28;20042;-79
2023/06/06 02:47:37;;;;;;;1999.90;999.90;;;;;;;19.82;46.31;102265.59;5075644;28;20105;-79
2023/06/06 02:50:03;;;;;;;1999.90;999.90;;;;;;;20.56;45.00;102261.81;5071289;28;20032;-79
2023/06/06 02:52:31;;;;;;;1999.90;999.90;;;;;;;20.46;45.38;102258.56;5053385;28;20147;-78
2023/06/06 02:54:57;;;;;;;1999.90;999.90;;;;;;;19.97;46.12;102263.44;5075282;28;20048;-79
2023/06/06 02:57:22;;;;;;;1999.90;999.90;;;;;;;20.43;44.62;102263.94;5058443;28;20081;-79
2023/06/06 02:59:48;;;;;;;1999.90;999.90;;;;;;;18.45;49.81;102266.94;5073849;28;20421;-78
2023/06/06 03:02:15;;;;;;;1999.90;999.90;;;;;;;19.90;46.61;102267.19;5073153;28;20529;-79
2023/06/06 03:04:43;;;;;;;1999.90;999.90;;;;;;;20.54;45.55;102263.63;5091059;28;20059;-78
2023/06/06 03:07:10;;;;;;;1999.90;999.90;;;;;;;19.53;47.81;102268.09;5067828;28;20028;-79
2023/06/06 03:09:36;;;;;;;1999.90;999.90;;;;;;;19.79;47.11;102270.94;5066628;28;20464;-79
2023/06/06 03:12:01;;;;;;;1999.90;999.90;;;;;;;20.27;45.64;102267.03;5073847;28;20077;-79
2023/06/06 03:14:27;;;;;;;1999.90;999.90;;;;;;;20.66;45.26;102263.25;5074187;28;20527;-79
2023/06/06 03:16:53;;;;;;;1999.90;999.90;;;;;;;21.11;44.28;102273.44;5090675;28;20123;-78
2023/06/06 03:19:18;;;;;;;1999.90;999.90;;;;;;;20.21;46.20;102271.63;5073101;28;20100;-79
2023/06/06 03:21:44;;;;;;;1999.90;999.90;;;;;;;20.54;45.50;102268.94;5071425;28;20162;-78
2023/06/06 03:24:10;;;;;;;1999.90;999.90;;;;;;;19.38;47.21;102278.16;5069284;28;20396;-79
2023/06/06 03:26:36;;;;;;;1999.90;999.90;;;;;;;19.87;47.52;102272.56;5070170;28;20089;-79
2023/06/06 03:29:02;;;;;;;1999.90;999.90;;;;;;;20.03;46.88;102279.22;5053705;28;20032;-79
2023/06/06 03:31:29;;;;;;;1999.90;999.90;;;;;;;20.60;44.95;102284.72;5052750;28;20483;-78
2023/06/06 03:33:54;;;;;;;1999.90;999.90;;;;;;;21.20;44.15;102272.28;5052989;28;20032;-79
2023/06/06 03:36:20;;;;;;;1999.90;999.90;;;;;;;21.11;43.90;102276.09;5053677;28;20043;-79
2023/06/06 03:38:45;;;;;;;1999.90;999.90;;;;;;;21.20;43.73;102274.94;5054239;28;20036;-79
2023/06/06 03:41:11;;;;;;;1999.90;999.90;;;;;;;20.67;44.89;102276.50;5055801;28;20143;-79
2023/06/06 03:43:36;;;;;;;1999.90;999.90;;;;;;;20.86;44.81;102280.44;5052804;28;20438;-79
2023/06/06 03:46:01;;;;;;;1999.90;999.90;;;;;;;20.88;44.66;102282.09;5070241;28;20066;-78
2023/06/06 03:48:27;;;;;;;1999.90;999.90;;;;;;;20.49;45.00;102283.22;5052953;28;20093;-79
2023/06/06 03:50:52;;;;;;;1999.90;999.90;;;;;;;20.87;45.14;102282.16;5073831;28;20388;-78
2023/06/06 03:53:18;;;;;;;1999.90;999.90;;;;;;;20.86;45.04;102269.81;5053119;28;20032;-79
2023/06/06 03:55:44;;;;;;;1999.90;999.90;;;;;;;20.92;44.50;102274.94;5056331;28;20170;-79
2023/06/06 03:58:10;;;;;;;1999.90;999.90;;;;;;;20.74;44.78;102277.22;5060824;28;20024;-79
2023/06/06 04:00:37;;;;;;;1999.90;999.90;;;;;;;20.93;44.93;102276.66;5076284;28;20032;-79
2023/06/06 04:03:03;;;;;;;1999.90;999.90;;;;;;;20.77;45.41;102282.47;5076393;28;20476;-79
2023/06/06 04:05:30;;;;;;;1999.90;999.90;;;;;;;20.45;45.92;102281.56;5070583;28;20377;-79
2023/06/06 04:07:56;;;;;;;1999.90;999.90;;;;;;;21.43;43.78;102278.63;5055839;28;20447;-79
2023/06/06 04:10:21;;;;;;;1999.90;999.90;;;;;;;21.51;43.69;102285.44;5056512;28;20036;-79
2023/06/06 04:12:46;;;;;;;1999.90;999.90;;;;;;;21.04;44.85;102274.53;5055993;28;20039;-79
2023/06/06 04:15:12;;;;;;;1999.90;999.90;;;;;;;20.88;45.14;102278.59;5056603;28;20028;-79
2023/06/06 04:17:37;;;;;;;1999.90;999.90;;;;;;;20.23;46.79;102275.13;5055588;28;20039;-79
2023/06/06 04:20:04;;;;;;;1999.90;999.90;;;;;;;20.46;46.71;102272.69;5059524;28;20115;-79
2023/06/06 04:22:29;;;;;;;1999.90;999.90;;;;;;;19.96;46.89;102267.88;5075915;28;20016;-79
2023/06/06 04:24:55;;;;;;;1999.90;999.90;;;;;;;20.71;45.70;102269.34;5056253;28;20036;-78
2023/06/06 04:27:23;;;;;;;1999.90;999.90;;;;;;;19.71;48.11;102272.06;5073347;28;20451;-79
2023/06/06 04:29:50;;;;;;;1999.90;999.90;;;;;;;19.30;49.40;102277.47;5055890;28;20102;-79
2023/06/06 04:32:18;;;;;;;1999.90;999.90;;;;;;;19.99;48.04;102273.09;5074102;28;20081;-79
2023/06/06 04:34:44;;;;;;;1999.90;999.90;;;;;;;20.48;46.03;102273.53;5072419;28;20605;-79
2023/06/06 04:37:13;;;;;;;1999.90;999.90;;;;;;;20.99;45.41;102271.16;5073303;28;20081;-79
2023/06/06 04:39:39;;;;;;;1999.90;999.90;;;;;;;21.41;44.67;102265.38;5055451;28;20495;-78
2023/06/06 04:42:05;;;;;;;1999.90;999.90;;;;;;;19.99;48.60;102266.94;5073202;28;20154;-79
2023/06/06 04:44:32;;;;;;;1999.90;999.90;;;;;;;20.22;47.56;102268.06;5055556;28;20388;-79
2023/06/06 04:47:01;;;;;;;1999.90;999.90;;;;;;;20.71;46.29;102272.00;5070866;28;20036;-79
2023/06/06 04:49:35;;;;;;;1999.90;999.90;;;;;;;20.75;46.12;102276.31;5059424;28;20095;-79
2023/06/06 04:52:03;;;;;;;1999.90;999.90;;;;;;;20.98;46.04;102275.59;5055465;28;20025;-79
2023/06/06 04:54:29;;;;;;;1999.90;999.90;;;;;;;21.08;45.53;102276.19;5061624;28;20536;-79
2023/06/06 04:56:56;;;;;;;1999.90;999.90;;;;;;;21.56;45.53;102281.81;5074139;28;21014;-79
2023/06/06 04:59:22;;;;;;;1999.90;999.90;;;;;;;20.95;45.92;102270.41;5062455;28;20035;-79
2023/06/06 05:01:48;;;;;;;1999.90;999.90;;;;;;;21.16;46.40;102271.50;5053952;28;20387;-79
2023/06/06 05:04:15;;;;;;;1999.90;999.90;;;;;;;21.99;43.73;102269.66;5063179;28;20036;-79
2023/06/06 05:06:41;;;;;;;1999.90;999.90;;;;;;;22.18;43.74;102270.72;5074972;28;20020;-79
2023/06/06 05:09:07;;;;;;;1999.90;999.90;;;;;;;21.97;43.74;102266.19;5069686;28;20043;-79
2023/06/06 05:11:36;;;;;;;1999.90;999.90;;;;;;;20.43;47.35;102272.78;5075301;28;20040;-80
2023/06/06 05:14:01;;;;;;;1999.90;999.90;;;;;;;21.48;46.04;102266.91;5075051;28;20031;-79
2023/06/06 05:16:26;;;;;;;1999.90;999.90;;;;;;;20.47;47.89;102277.09;5073958;28;20031;-79
2023/06/06 05:18:52;;;;;;;1999.90;999.90;;;;;;;21.56;45.41;102265.84;5082851;28;20028;-79
2023/06/06 05:21:21;;;;;;;1999.90;999.90;;;;;;;21.67;46.06;102266.34;5071714;28;20039;-78
2023/06/06 05:23:46;;;;;;;1999.90;999.90;;;;;;;22.57;43.62;102258.69;5089674;28;20039;-79
2023/06/06 05:26:12;;;;;;;1999.90;999.90;;;;;;;22.25;44.83;102255.41;5056354;28;20024;-79
2023/06/06 05:28:38;;;;;;;1999.90;999.90;;;;;;;22.79;42.65;102266.75;5060600;28;20031;-79
2023/06/06 05:31:07;;;;;;;1999.90;999.90;;;;;;;23.37;41.71;102252.03;5074359;28;20035;-79
2023/06/06 05:33:33;;;;;;;1999.90;999.90;;;;;;;21.22;45.76;102266.91;5072386;28;20515;-79
2023/06/06 05:35:59;;;;;;;1999.90;999.90;;;;;;;21.63;44.99;102264.69;5072007;28;20028;-79
2023/06/06 05:38:25;;;;;;;1999.90;999.90;;;;;;;21.88;44.61;102262.06;5054557;28;20431;-79
2023/06/06 05:40:51;;;;;;;1999.90;999.90;;;;;;;22.56;43.65;102264.06;5055138;28;20055;-79
2023/06/06 05:43:16;;;;;;;1999.90;999.90;;;;;;;22.44;43.69;102271.59;5072565;28;20071;-79
2023/06/06 05:45:42;;;;;;;1999.90;999.90;;;;;;;23.16;42.62;102265.31;5052782;28;20070;-80
2023/06/06 05:48:07;;;;;;;1999.90;999.90;;;;;;;22.71;42.89;102266.16;5054492;28;20111;-79
2023/06/06 05:50:33;;;;;;;1999.90;999.90;;;;;;;22.87;43.49;102272.63;5054064;28;20062;-80
2023/06/06 05:52:58;;;;;;;1999.90;999.90;;;;;;;23.45;42.14;102265.91;5072213;28;20053;-80
2023/06/06 05:55:28;;;;;;;1999.90;999.90;;;;;;;22.76;41.99;102266.84;5058620;28;20055;-78
2023/06/06 05:57:55;;;;;;;1999.90;999.90;;;;;;;21.97;44.69;102264.41;5047848;28;20035;-78
2023/06/06 06:00:24;;;;;;;1999.90;999.90;;;;;;;22.99;42.06;102260.59;5052923;28;20033;-79
2023/06/06 06:02:51;;;;;;;1999.90;999.90;;;;;;;22.97;42.68;102264.25;5041473;28;20066;-79
2023/06/06 06:05:18;;;;;;;1999.90;999.90;;;;;;;22.46;43.86;102268.88;5053200;28;20024;-79
2023/06/06 06:07:44;;;;;;;1999.90;999.90;;;;;;;23.35;41.69;102269.88;5037451;28;20362;-79
2023/06/06 06:10:10;;;;;;;1999.90;999.90;;;;;;;23.60;42.30;102263.50;5043909;28;20021;-80
2023/06/06 06:12:35;;;;;;;1999.90;999.90;;;;;;;24.40;40.63;102265.38;5035531;28;20090;-80
2023/06/06 06:15:01;;;;;;;1999.90;999.90;;;;;;;25.01;39.66;102272.31;5047954;28;20446;-80
2023/06/06 06:17:26;;;;;;;1999.90;999.90;;;;;;;26.21;36.95;102260.03;5044960;28;20142;-80
2023/06/06 06:19:51;;;;;;;1999.90;999.90;;;;;;;27.21;35.34;102267.00;5070955;28;20024;-79
2023/06/06 06:22:17;;;;;;;1999.90;999.90;;;;;;;26.38;35.96;102267.16;5045237;28;20030;-77
2023/06/06 06:24:43;;;;;;;1999.90;999.90;;;;;;;26.51;35.39;102267.34;5047802;28;20431;-80
2023/06/06 06:27:08;;;;;;;1999.90;999.90;;;;;;;29.33;31.10;102269.19;5049413;28;20074;-79
2023/06/06 06:29:33;;;;;;;1999.90;999.90;;;;;;;29.48;30.54;102275.38;5045985;28;20127;-80
2023/06/06 06:31:59;;;;;;;1999.90;999.90;;;;;;;29.15;30.80;102273.97;5064222;28;20032;-80
2023/06/06 06:34:24;;;;;;;1999.90;999.90;;;;;;;29.70;30.67;102272.06;5035809;28;20088;-79
2023/06/06 06:36:50;;;;;;;1999.90;999.90;;;;;;;30.04;30.02;102272.44;5039872;28;20021;-79
2023/06/06 06:39:18;;;;;;;1999.90;999.90;;;;;;;30.22;29.58;102271.13;5036353;28;20112;-79
2023/06/06 06:41:45;;;;;;;1999.90;999.90;;;;;;;30.48;28.66;102265.72;5037551;28;20086;-79
2023/06/06 06:44:11;;;;;;;1999.90;999.90;;;;;;;30.52;29.51;102275.31;5048474;28;20032;-80
2023/06/06 06:46:36;;;;;;;1999.90;999.90;;;;;;;31.76;27.04;102276.94;5037932;28;20029;-80
2023/06/06 06:49:02;;;;;;;1999.90;999.90;;;;;;;30.82;27.51;102278.56;5068764;28;20064;-79
2023/06/06 06:51:29;;;;;;;1999.90;999.90;;;;;;;30.85;28.33;102276.53;5054151;28;20092;-80
2023/06/06 06:53:57;;;;;;;1999.90;999.90;;;;;;;31.49;27.90;102271.81;5050774;28;20045;-79
2023/06/06 06:56:24;;;;;;;1999.90;999.90;;;;;;;31.35;27.81;102280.97;5040354;28;20025;-79
2023/06/06 06:58:50;;;;;;;1999.90;999.90;;;;;;;30.73;29.31;102280.13;5033710;28;20029;-80
2023/06/06 07:01:19;;;;;;;1999.90;999.90;;;;;;;28.15;32.67;102279.41;5038949;28;20028;-78
2023/06/06 07:03:48;;;;;;;1999.90;999.90;;;;;;;29.26;30.47;102284.91;5038203;28;20109;-79
2023/06/06 07:06:13;;;;;;;1999.90;999.90;;;;;;;29.60;30.28;102280.78;5068885;28;20491;-79
2023/06/06 07:08:41;;;;;;;1999.90;999.90;;;;;;;29.88;30.18;102273.53;5053045;28;20032;-79
2023/06/06 07:11:07;;;;;;;1999.90;999.90;;;;;;;29.70;30.04;102291.78;5071518;28;20028;-79
2023/06/06 07:13:32;;;;;;;1999.90;999.90;;;;;;;30.72;29.27;102278.41;5069836;28;20103;-79
2023/06/06 07:15:58;;;;;;;1999.90;999.90;;;;;;;30.70;28.84;102288.44;5050056;28;20278;-79
2023/06/06 07:18:24;;;;;;;1999.90;999.90;;;;;;;31.83;27.53;102286.28;5033607;28;20032;-78
2023/06/06 07:20:49;;;;;;;1999.90;999.90;;;;;;;32.66;26.85;102278.84;5051328;28;20039;-79
2023/06/06 07:23:15;;;;;;;1999.90;999.90;;;;;;;31.30;28.10;102284.88;5048284;28;20016;-79
2023/06/06 07:25:41;;;;;;;1999.90;999.90;;;;;;;30.63;28.63;102278.09;5047359;28;20111;-79
2023/06/06 07:28:07;;;;;;;1999.90;999.90;;;;;;;31.23;27.54;102280.03;5052219;28;20065;-78
2023/06/06 07:30:32;;;;;;;1999.90;999.90;;;;;;;30.74;27.56;102277.31;5037346;28;20029;-78
2023/06/06 07:32:58;;;;;;;1999.90;999.90;;;;;;;32.46;27.01;102272.31;5040234;28;20025;-79
2023/06/06 07:35:24;;;;;;;1999.90;999.90;;;;;;;31.96;26.34;102269.97;5038463;28;20454;-78
2023/06/06 07:37:50;;;;;;;1999.90;999.90;;;;;;;31.26;27.46;102267.19;5035431;28;20115;-76
2023/06/06 07:40:16;;;;;;;1999.90;999.90;;;;;;;31.48;27.52;102270.94;5041985;28;20041;-78
2023/06/06 07:42:42;;;;;;;1999.90;999.90;;;;;;;32.24;26.30;102271.34;5054685;28;20218;-78
2023/06/06 07:45:09;;;;;;;1999.90;999.90;;;;;;;32.79;25.69;102273.28;5041400;28;20058;-78
2023/06/06 07:47:39;;;;;;;1999.90;999.90;;;;;;;34.23;24.09;102259.22;5059370;28;20105;-79
2023/06/06 07:50:05;;;;;;;1999.90;999.90;;;;;;;28.95;30.22;102278.84;5042978;28;20147;-78
2023/06/06 07:52:32;;;;;;;1999.90;999.90;;;;;;;29.69;29.27;102281.13;5036466;28;20020;-79
2023/06/06 07:54:58;;;;;;;1999.90;999.90;;;;;;;29.33;28.90;102274.59;5076396;28;20056;-80
2023/06/06 07:57:25;;;;;;;1999.90;999.90;;;;;;;30.92;28.36;102264.28;5074859;28;20040;-80
2023/06/06 07:59:51;;;;;;;1999.90;999.90;;;;;;;31.93;26.72;102264.78;5094736;28;20019;-79
2023/06/06 08:02:16;;;;;;;1999.90;999.90;;;;;;;30.92;27.78;102269.69;5076850;28;20507;-79
2023/06/06 08:04:45;;;;;;;1999.90;999.90;;;;;;;29.97;29.19;102265.78;5060673;28;20082;-79
2023/06/06 08:07:14;;;;;;;1999.90;999.90;;;;;;;31.65;27.01;102266.97;5057759;28;20034;-79
2023/06/06 08:09:40;;;;;;;1999.90;999.90;;;;;;;30.88;28.82;102260.09;5074541;28;20437;-78
2023/06/06 08:12:06;;;;;;;1999.90;999.90;;;;;;;31.83;26.66;102261.94;5076418;28;20455;-78
2023/06/06 08:14:34;;;;;;;1999.90;999.90;;;;;;;32.12;26.62;102258.78;5065044;28;20114;-79
2023/06/06 08:17:00;;;;;;;1999.90;999.90;;;;;;;32.25;26.01;102264.97;5057943;28;20116;-78
2023/06/06 08:19:26;;;;;;;1999.90;999.90;;;;;;;29.21;30.01;102263.66;5062206;28;20142;-76
2023/06/06 08:21:51;;;;;;;1999.90;999.90;;;;;;;30.76;27.85;102261.00;5071789;28;20544;-78
2023/06/06 08:24:17;;;;;;;1999.90;999.90;;;;;;;32.19;25.47;102259.19;5068257;28;20115;-79
2023/06/06 08:26:42;;;;;;;1999.90;999.90;;;;;;;34.22;24.76;102248.50;5061610;28;20063;-78
2023/06/06 08:29:07;;;;;;;1999.90;999.90;;;;;;;34.13;23.57;102263.75;5059260;28;20027;-77
2023/06/06 08:31:33;;;;;;;1999.90;999.90;;;;;;;34.94;23.04;102257.41;5063758;28;20051;-79
2023/06/06 08:33:58;;;;;;;1999.90;999.90;;;;;;;33.28;24.19;102265.66;5074573;28;20057;-77
2023/06/06 08:36:25;;;;;;;1999.90;999.90;;;;;;;33.56;24.19;102272.25;5076708;28;20024;-78
2023/06/06 08:38:51;;;;;;;1999.90;999.90;;;;;;;32.32;25.14;102262.63;5070602;28;20068;-77
2023/06/06 08:41:17;;;;;;;1999.90;999.90;;;;;;;32.89;25.56;102252.59;5058838;28;20036;-77
2023/06/06 08:43:46;;;;;;;1999.90;999.90;;;;;;;32.37;25.75;102265.84;5057809;28;20024;-81
2023/06/06 08:46:12;;;;;;;1999.90;999.90;;;;;;;32.78;24.89;102266.16;5088397;28;20031;-79
2023/06/06 08:48:40;;;;;;;1999.90;999.90;;;;;;;34.18;23.26;102261.47;5057664;28;20373;-82
2023/06/06 08:51:08;;;;;;;1999.90;999.90;;;;;;;31.13;27.53;102267.25;5073961;28;20052;-79
2023/06/06 08:53:36;;;;;;;1999.90;999.90;;;;;;;34.31;24.46;102262.13;5054911;28;20074;-80
2023/06/06 08:56:02;;;;;;;1999.90;999.90;;;;;;;33.69;24.50;102260.34;5056158;28;20384;-80
2023/06/06 08:58:29;;;;;;;1999.90;999.90;;;;;;;34.29;24.70;102264.16;5064190;28;20038;-80
2023/06/06 09:00:58;;;;;;;1999.90;999.90;;;;;;;36.63;21.79;102245.84;5072091;28;20555;-81
2023/06/06 09:03:27;;;;;;;1999.90;999.90;;;;;;;33.73;23.44;102256.38;5060044;28;20032;-81
2023/06/06 09:05:53;;;;;;;1999.90;999.90;;;;;;;32.13;26.85;102260.50;5088050;28;20032;-79
2023/06/06 09:08:19;;;;;;;1999.90;999.90;;;;;;;33.51;25.17;102252.84;5094524;28;20417;-79
2023/06/06 09:10:45;;;;;;;1999.90;999.90;;;;;;;34.31;24.17;102250.44;5071150;28;20024;-80
2023/06/06 09:13:10;;;;;;;1999.90;999.90;;;;;;;32.89;24.55;102252.59;5064141;28;20086;-81
2023/06/06 09:15:35;;;;;;;1999.90;999.90;;;;;;;33.20;25.40;102252.72;5068414;28;20097;-80
2023/06/06 09:18:01;;;;;;;1999.90;999.90;;;;;;;33.95;24.77;102245.41;5078621;28;20155;-80
2023/06/06 09:20:26;;;;;;;1999.90;999.90;;;;;;;34.62;22.84;102243.09;5058164;28;20048;-79
2023/06/06 09:22:53;;;;;;;1999.90;999.90;;;;;;;34.19;23.87;102244.22;5084091;28;20120;-79
2023/06/06 09:25:23;;;;;;;1999.90;999.90;;;;;;;34.59;23.13;102248.78;5086971;28;20051;-80
2023/06/06 09:27:56;;;;;;;1999.90;999.90;;;;;;;33.55;24.98;102248.88;5058869;28;20492;-80
2023/06/06 09:30:24;;;;;;;1999.90;999.90;;;;;;;34.67;22.92;102251.66;5073859;28;20046;-79
2023/06/06 09:33:02;;;;;;;1999.90;999.90;;;;;;;33.17;24.85;102258.41;5065938;28;20040;-77
2023/06/06 09:35:37;;;;;;;1999.90;999.90;;;;;;;33.11;25.71;102256.19;5074940;28;20081;-79
2023/06/06 09:38:17;;;;;;;1999.90;999.90;;;;;;;35.21;23.56;102247.72;5080613;28;20365;-79
2023/06/06 09:40:47;;;;;;;1999.90;999.90;;;;;;;33.91;24.06;102249.38;5055605;28;20031;-80
2023/06/06 09:43:15;;;;;;;1999.90;999.90;;;;;;;34.34;22.96;102233.88;5074430;28;20051;-80
2023/06/06 09:45:55;;;;;;;1999.90;999.90;;;;;;;33.72;23.65;102243.84;5053649;28;20465;-79
2023/06/06 09:48:21;;;;;;;1999.90;999.90;;;;;;;32.88;24.64;102250.88;5054003;28;20414;-77
2023/06/06 09:50:47;;;;;;;1999.90;999.90;;;;;;;33.27;24.25;102251.22;5088386;28;20028;-79
2023/06/06 09:53:12;;;;;;;1999.90;999.90;;;;;;;31.08;27.07;102252.41;5092348;28;20494;-71
2023/06/06 09:55:40;;;;;;;1999.90;999.90;;;;;;;33.46;23.93;102255.06;5095948;28;20067;-69
2023/06/06 09:58:07;;;;;;;1999.90;999.90;;;;;;;33.76;24.37;102243.41;5067700;28;20028;-70
2023/06/06 10:00:38;;;;;;;1999.90;999.90;;;;;;;34.05;24.21;102239.19;5066556;28;20059;-69
2023/06/06 10:03:08;;;;;;;1999.90;999.90;;;;;;;35.62;21.89;102251.97;5069970;28;20040;-69
2023/06/06 10:05:36;;;;;;;1999.90;999.90;;;;;;;35.83;22.26;102249.09;5069712;28;20017;-70
2023/06/06 10:08:03;;;;;;;1999.90;999.90;;;;;;;35.15;22.28;102251.88;5056562;28;20114;-70
2023/06/06 10:10:29;;;;;;;1999.90;999.90;;;;;;;36.37;20.96;102250.28;5071671;28;20476;-70
2023/06/06 10:12:55;;;;;;;1999.90;999.90;;;;;;;37.33;21.04;102258.78;5069969;28;20293;-69
2023/06/06 10:15:21;;;;;;;1999.90;999.90;;;;;;;36.25;21.40;102250.47;5071780;28;20024;-70
2023/06/06 10:17:48;;;;;;;1999.90;999.90;;;;;;;34.75;23.49;102248.25;5070790;28;20032;-70
2023/06/06 10:20:14;;;;;;;1999.90;999.90;;;;;;;37.35;21.98;102245.84;5059809;28;20463;-70
2023/06/06 10:22:40;;;;;;;1999.90;999.90;;;;;;;35.73;22.09;102250.09;5052791;28;20024;-70
2023/06/06 10:25:16;;;;;;;1999.90;999.90;;;;;;;34.64;23.56;102241.06;5089251;28;20071;-70
2023/06/06 10:28:07;;;;;;;1999.90;999.90;;;;;;;35.86;22.06;102245.22;5085517;28;20039;-70
2023/06/06 10:30:41;;;;;;;1999.90;999.90;;;;;;;35.12;22.96;102239.44;5065246;28;20543;-71
2023/06/06 10:33:42;;;;;;;1999.90;999.90;;;;;;;35.48;23.09;102238.84;5067132;28;20028;-70
2023/06/06 10:36:09;;;;;;;1999.90;999.90;;;;;;;36.04;22.18;102238.97;5061357;28;20032;-70
2023/06/06 10:38:38;;;;;;;1999.90;999.90;;;;;;;34.61;23.64;102246.78;5052441;28;20020;-70
2023/06/06 10:41:16;;;;;;;1999.90;999.90;;;;;;;33.28;24.44;102235.84;5069159;28;20028;-69
2023/06/06 10:43:41;;;;;;;1999.90;999.90;;;;;;;35.13;23.84;102229.41;5053986;28;20442;-69
2023/06/06 10:46:07;;;;;;;1999.90;999.90;;;;;;;35.62;22.57;102235.66;5055421;28;20032;-70
2023/06/06 10:48:40;;;;;;;1999.90;999.90;;;;;;;34.85;23.06;102229.28;5055365;28;20110;-71